createdAt,value
2018-04-29T00:00:01.223Z,13.70
2018-04-29T00:01:01.249Z,13.70
2018-04-29T00:02:01.262Z,13.62
2018-04-29T00:03:01.288Z,13.57
2018-04-29T00:04:01.313Z,13.54
2018-04-29T00:05:01.328Z,13.58
2018-04-29T00:06:01.345Z,13.54
2018-04-29T00:07:01.366Z,13.47
2018-04-29T00:08:01.395Z,13.50
2018-04-29T00:09:01.407Z,13.50
2018-04-29T00:10:01.438Z,13.47
2018-04-29T00:11:01.445Z,13.46
2018-04-29T00:12:01.471Z,13.47
2018-04-29T00:13:01.501Z,13.47
2018-04-29T00:14:01.511Z,13.47
2018-04-29T00:15:01.537Z,13.47
2018-04-29T00:16:01.560Z,13.52
2018-04-29T00:17:01.575Z,13.54
2018-04-29T00:18:01.601Z,13.46
2018-04-29T00:19:01.615Z,13.52
2018-04-29T00:20:01.642Z,13.54
2018-04-29T00:21:01.654Z,13.58
2018-04-29T00:22:01.682Z,13.55
2018-04-29T00:23:01.695Z,13.57
2018-04-29T00:24:01.720Z,13.52
2018-04-29T00:25:01.734Z,13.60
2018-04-29T00:26:01.759Z,13.58
2018-04-29T00:27:01.785Z,13.58
2018-04-29T00:28:01.800Z,13.57
2018-04-29T00:29:01.825Z,13.58
2018-04-29T00:30:01.839Z,13.61
2018-04-29T00:31:01.866Z,13.61
2018-04-29T00:32:01.890Z,13.62
2018-04-29T00:33:01.907Z,13.55
2018-04-29T00:34:01.930Z,13.57
2018-04-29T00:35:01.943Z,13.61
2018-04-29T00:36:01.972Z,13.57
2018-04-29T00:37:01.983Z,13.64
2018-04-29T00:38:02.010Z,13.54
2018-04-29T00:39:02.037Z,13.55
2018-04-29T00:40:02.048Z,13.64
2018-04-29T00:41:02.075Z,13.60
2018-04-29T00:42:02.090Z,13.50
2018-04-29T00:43:02.115Z,13.55
2018-04-29T00:44:02.139Z,13.55
2018-04-29T00:45:02.153Z,13.55
2018-04-29T00:46:02.179Z,13.57
2018-04-29T00:47:02.193Z,13.60
2018-04-29T00:48:02.219Z,13.54
2018-04-29T00:49:02.233Z,13.49
2018-04-29T00:50:02.271Z,13.50
2018-04-29T00:51:02.283Z,13.45
2018-04-29T00:52:02.299Z,13.46
2018-04-29T00:53:02.325Z,13.31
2018-04-29T00:54:02.338Z,13.42
2018-04-29T00:55:02.363Z,13.39
2018-04-29T00:56:02.380Z,13.33
2018-04-29T00:57:02.405Z,13.30
2018-04-29T00:58:02.417Z,13.30
2018-04-29T00:59:02.456Z,13.30
2018-04-29T01:00:02.467Z,13.23
2018-04-29T01:01:02.481Z,13.28
2018-04-29T01:02:02.508Z,13.26
2018-04-29T01:03:02.520Z,13.19
2018-04-29T01:04:02.546Z,13.08
2018-04-29T01:05:02.561Z,13.19
2018-04-29T01:06:02.646Z,13.11
2018-04-29T01:07:02.612Z,13.06
2018-04-29T01:08:02.631Z,13.08
2018-04-29T01:09:02.653Z,13.13
2018-04-29T01:10:02.673Z,13.02
2018-04-29T01:11:02.692Z,13.01
2018-04-29T01:12:02.704Z,13.06
2018-04-29T01:13:02.732Z,13.08
2018-04-29T01:14:02.757Z,13.02
2018-04-29T01:15:02.771Z,12.99
2018-04-29T01:16:02.784Z,12.95
2018-04-29T01:17:02.810Z,12.94
2018-04-29T01:18:02.836Z,12.88
2018-04-29T01:19:02.851Z,12.90
2018-04-29T01:20:02.877Z,12.83
2018-04-29T01:21:02.888Z,12.86
2018-04-29T01:22:02.913Z,12.83
2018-04-29T01:23:02.940Z,12.80
2018-04-29T01:24:02.953Z,12.80
2018-04-29T01:25:02.966Z,12.83
2018-04-29T01:26:02.993Z,12.80
2018-04-29T01:27:03.007Z,12.83
2018-04-29T01:28:03.033Z,12.75
2018-04-29T01:29:03.045Z,12.80
2018-04-29T01:30:03.074Z,12.73
2018-04-29T01:31:03.097Z,12.70
2018-04-29T01:32:03.118Z,12.76
2018-04-29T01:33:03.136Z,12.80
2018-04-29T01:34:03.155Z,12.80
2018-04-29T01:35:03.177Z,12.78
2018-04-29T01:36:03.190Z,12.72
2018-04-29T01:37:03.216Z,12.70
2018-04-29T01:38:03.229Z,12.73
2018-04-29T01:39:03.255Z,12.75
2018-04-29T01:40:03.269Z,12.73
2018-04-29T01:41:03.296Z,12.81
2018-04-29T01:42:03.313Z,12.86
2018-04-29T01:43:03.333Z,12.75
2018-04-29T01:44:03.352Z,12.78
2018-04-29T01:45:03.374Z,12.86
2018-04-29T01:46:03.399Z,12.83
2018-04-29T01:47:03.413Z,12.87
2018-04-29T01:48:03.439Z,12.88
2018-04-29T01:49:03.457Z,12.87
2018-04-29T01:50:03.478Z,12.84
2018-04-29T01:51:03.492Z,12.87
2018-04-29T01:52:03.523Z,12.88
2018-04-29T01:53:03.533Z,12.95
2018-04-29T01:54:03.560Z,12.91
2018-04-29T01:55:03.585Z,12.91
2018-04-29T01:56:03.598Z,12.93
2018-04-29T01:57:03.622Z,12.94
2018-04-29T01:58:03.637Z,12.90
2018-04-29T01:59:03.663Z,12.95
2018-04-29T02:00:03.682Z,12.93
2018-04-29T02:01:03.702Z,12.94
2018-04-29T02:02:03.717Z,12.98
2018-04-29T02:03:03.747Z,12.90
2018-04-29T02:04:03.756Z,12.91
2018-04-29T02:05:03.786Z,12.93
2018-04-29T02:06:03.807Z,12.95
2018-04-29T02:07:03.823Z,12.93
2018-04-29T02:08:03.848Z,12.84
2018-04-29T02:09:03.860Z,12.91
2018-04-29T02:10:03.886Z,12.84
2018-04-29T02:11:03.913Z,12.86
2018-04-29T02:12:03.931Z,12.84
2018-04-29T02:13:03.940Z,12.83
2018-04-29T02:14:03.965Z,12.80
2018-04-29T02:15:03.991Z,12.83
2018-04-29T02:16:04.004Z,12.88
2018-04-29T02:17:04.035Z,12.83
2018-04-29T02:18:04.045Z,12.86
2018-04-29T02:19:04.069Z,12.86
2018-04-29T02:20:04.084Z,12.83
2018-04-29T02:21:04.109Z,12.76
2018-04-29T02:22:04.123Z,12.75
2018-04-29T02:23:04.148Z,12.72
2018-04-29T02:24:04.162Z,12.75
2018-04-29T02:25:04.190Z,12.72
2018-04-29T02:26:04.205Z,12.72
2018-04-29T02:27:04.227Z,12.68
2018-04-29T02:28:04.256Z,12.72
2018-04-29T02:29:04.267Z,12.72
2018-04-29T02:30:04.352Z,12.70
2018-04-29T02:31:04.307Z,12.75
2018-04-29T02:32:04.334Z,12.75
2018-04-29T02:33:04.346Z,12.75
2018-04-29T02:34:04.374Z,12.70
2018-04-29T02:35:04.386Z,12.66
2018-04-29T02:36:04.411Z,12.68
2018-04-29T02:37:04.434Z,12.68
2018-04-29T02:38:04.453Z,12.72
2018-04-29T02:39:04.472Z,12.63
2018-04-29T02:40:04.490Z,12.68
2018-04-29T02:41:04.517Z,12.68
2018-04-29T02:42:04.533Z,12.65
2018-04-29T02:43:04.559Z,12.66
2018-04-29T02:44:04.573Z,12.63
2018-04-29T02:45:04.595Z,12.58
2018-04-29T02:46:04.617Z,12.68
2018-04-29T02:47:04.637Z,12.51
2018-04-29T02:48:04.648Z,12.53
2018-04-29T02:49:04.675Z,12.53
2018-04-29T02:50:04.690Z,12.61
2018-04-29T02:51:04.715Z,12.58
2018-04-29T02:52:04.727Z,12.55
2018-04-29T02:53:04.753Z,12.55
2018-04-29T02:54:04.767Z,12.44
2018-04-29T02:55:04.793Z,12.53
2018-04-29T02:56:04.805Z,12.55
2018-04-29T02:57:04.832Z,12.51
2018-04-29T02:58:04.846Z,12.53
2018-04-29T02:59:04.872Z,12.51
2018-04-29T03:00:04.887Z,12.43
2018-04-29T03:01:04.912Z,12.57
2018-04-29T03:02:05.011Z,12.58
2018-04-29T03:03:04.952Z,12.53
2018-04-29T03:04:04.971Z,12.51
2018-04-29T03:05:04.991Z,12.55
2018-04-29T03:06:05.016Z,12.55
2018-04-29T03:07:05.030Z,12.51
2018-04-29T03:08:05.057Z,12.55
2018-04-29T03:09:05.069Z,12.53
2018-04-29T03:10:05.095Z,12.53
2018-04-29T03:11:05.109Z,12.43
2018-04-29T03:12:05.134Z,12.37
2018-04-29T03:13:05.161Z,12.37
2018-04-29T03:14:05.174Z,12.37
2018-04-29T03:15:05.188Z,12.43
2018-04-29T03:16:05.214Z,12.35
2018-04-29T03:17:05.233Z,12.36
2018-04-29T03:18:05.252Z,12.36
2018-04-29T03:19:05.266Z,12.30
2018-04-29T03:20:05.294Z,12.29
2018-04-29T03:21:05.306Z,12.25
2018-04-29T03:22:05.338Z,12.20
2018-04-29T03:23:05.345Z,12.20
2018-04-29T03:24:05.372Z,12.18
2018-04-29T03:25:05.388Z,12.28
2018-04-29T03:26:05.410Z,12.12
2018-04-29T03:27:05.425Z,12.20
2018-04-29T03:28:05.451Z,12.17
2018-04-29T03:29:05.463Z,12.08
2018-04-29T03:30:05.489Z,12.07
2018-04-29T03:31:05.504Z,12.08
2018-04-29T03:32:05.530Z,12.11
2018-04-29T03:33:05.542Z,12.11
2018-04-29T03:34:05.571Z,11.97
2018-04-29T03:35:05.582Z,11.97
2018-04-29T03:36:05.682Z,11.97
2018-04-29T03:37:05.620Z,11.83
2018-04-29T03:38:05.646Z,11.86
2018-04-29T03:39:05.661Z,11.89
2018-04-29T03:40:05.687Z,11.88
2018-04-29T03:41:05.700Z,11.81
2018-04-29T03:42:05.738Z,11.88
2018-04-29T03:43:05.740Z,11.86
2018-04-29T03:44:05.767Z,11.86
2018-04-29T03:45:05.778Z,11.85
2018-04-29T03:46:05.807Z,11.81
2018-04-29T03:47:05.823Z,11.78
2018-04-29T03:48:05.847Z,11.73
2018-04-29T03:49:05.872Z,11.68
2018-04-29T03:50:05.883Z,11.74
2018-04-29T03:51:05.897Z,11.73
2018-04-29T03:52:05.923Z,11.68
2018-04-29T03:53:05.936Z,11.60
2018-04-29T03:54:05.961Z,11.65
2018-04-29T03:55:05.976Z,11.56
2018-04-29T03:56:06.070Z,11.63
2018-04-29T03:57:06.015Z,11.53
2018-04-29T03:58:06.044Z,11.59
2018-04-29T03:59:06.055Z,11.55
2018-04-29T04:00:06.081Z,11.53
2018-04-29T04:01:06.093Z,11.51
2018-04-29T04:02:06.119Z,11.55
2018-04-29T04:03:06.133Z,11.48
2018-04-29T04:04:06.163Z,11.45
2018-04-29T04:05:06.172Z,11.52
2018-04-29T04:06:06.189Z,11.51
2018-04-29T04:07:06.213Z,11.49
2018-04-29T04:08:06.225Z,11.48
2018-04-29T04:09:06.252Z,11.52
2018-04-29T04:10:06.266Z,11.51
2018-04-29T04:11:06.292Z,11.49
2018-04-29T04:12:06.318Z,11.58
2018-04-29T04:13:06.330Z,11.58
2018-04-29T04:14:06.345Z,11.55
2018-04-29T04:15:06.371Z,11.59
2018-04-29T04:16:06.383Z,11.56
2018-04-29T04:17:06.409Z,11.65
2018-04-29T04:18:06.426Z,11.65
2018-04-29T04:19:06.450Z,11.62
2018-04-29T04:20:06.476Z,11.67
2018-04-29T04:21:06.488Z,11.73
2018-04-29T04:22:06.503Z,11.67
2018-04-29T04:23:06.529Z,11.73
2018-04-29T04:24:06.542Z,11.70
2018-04-29T04:25:06.567Z,11.71
2018-04-29T04:26:06.582Z,11.76
2018-04-29T04:27:06.608Z,11.70
2018-04-29T04:28:06.620Z,11.78
2018-04-29T04:29:06.646Z,11.78
2018-04-29T04:30:06.660Z,11.81
2018-04-29T04:31:06.690Z,11.78
2018-04-29T04:32:06.699Z,11.85
2018-04-29T04:33:06.739Z,11.83
2018-04-29T04:34:06.744Z,11.80
2018-04-29T04:35:06.765Z,11.86
2018-04-29T04:36:06.778Z,11.91
2018-04-29T04:37:06.805Z,11.83
2018-04-29T04:38:06.825Z,11.93
2018-04-29T04:39:06.845Z,11.93
2018-04-29T04:40:06.858Z,11.93
2018-04-29T04:41:06.885Z,11.89
2018-04-29T04:42:06.897Z,11.83
2018-04-29T04:43:06.923Z,11.91
2018-04-29T04:44:06.938Z,11.86
2018-04-29T04:45:06.962Z,11.95
2018-04-29T04:46:06.978Z,11.88
2018-04-29T04:47:07.002Z,11.97
2018-04-29T04:48:07.028Z,11.86
2018-04-29T04:49:07.041Z,11.91
2018-04-29T04:50:07.055Z,11.86
2018-04-29T04:51:07.081Z,11.91
2018-04-29T04:52:07.094Z,11.89
2018-04-29T04:53:07.122Z,11.88
2018-04-29T04:54:07.134Z,11.86
2018-04-29T04:55:07.160Z,11.91
2018-04-29T04:56:07.173Z,11.97
2018-04-29T04:57:07.198Z,11.99
2018-04-29T04:58:07.253Z,11.91
2018-04-29T04:59:07.238Z,11.88
2018-04-29T05:00:07.251Z,11.93
2018-04-29T05:01:07.280Z,11.97
2018-04-29T05:02:07.292Z,11.85
2018-04-29T05:03:07.318Z,11.88
2018-04-29T05:04:07.330Z,11.91
2018-04-29T05:05:07.357Z,11.86
2018-04-29T05:06:07.371Z,11.88
2018-04-29T05:07:07.396Z,11.95
2018-04-29T05:08:07.412Z,11.93
2018-04-29T05:09:07.436Z,11.97
2018-04-29T05:10:07.456Z,11.85
2018-04-29T05:11:07.476Z,11.93
2018-04-29T05:12:07.488Z,11.95
2018-04-29T05:13:07.514Z,11.96
2018-04-29T05:14:07.528Z,12.00
2018-04-29T05:15:07.554Z,12.03
2018-04-29T05:16:07.567Z,11.93
2018-04-29T05:17:07.593Z,11.97
2018-04-29T05:18:07.607Z,12.00
2018-04-29T05:19:07.632Z,11.99
2018-04-29T05:20:07.658Z,12.05
2018-04-29T05:21:07.672Z,12.08
2018-04-29T05:22:07.774Z,12.07
2018-04-29T05:23:07.711Z,12.08
2018-04-29T05:24:07.738Z,12.02
2018-04-29T05:25:07.763Z,12.11
2018-04-29T05:26:07.776Z,12.12
2018-04-29T05:27:07.792Z,12.17
2018-04-29T05:28:07.816Z,12.20
2018-04-29T05:29:07.829Z,12.21
2018-04-29T05:30:07.855Z,12.29
2018-04-29T05:31:07.870Z,12.29
2018-04-29T05:32:07.896Z,12.23
2018-04-29T05:33:07.908Z,12.33
2018-04-29T05:34:07.935Z,12.40
2018-04-29T05:35:07.949Z,12.33
2018-04-29T05:36:07.983Z,12.44
2018-04-29T05:37:07.988Z,12.39
2018-04-29T05:38:08.013Z,12.37
2018-04-29T05:39:08.040Z,12.50
2018-04-29T05:40:08.054Z,12.54
2018-04-29T05:41:08.122Z,12.55
2018-04-29T05:42:08.095Z,12.61
2018-04-29T05:43:08.124Z,12.70
2018-04-29T05:44:08.133Z,12.61
2018-04-29T05:45:08.158Z,12.65
2018-04-29T05:46:08.173Z,12.72
2018-04-29T05:47:08.197Z,12.73
2018-04-29T05:48:08.223Z,12.88
2018-04-29T05:49:08.237Z,12.80
2018-04-29T05:50:08.264Z,12.83
2018-04-29T05:51:08.277Z,12.87
2018-04-29T05:52:08.303Z,12.94
2018-04-29T05:53:08.317Z,12.99
2018-04-29T05:54:08.342Z,13.02
2018-04-29T05:55:08.369Z,13.16
2018-04-29T05:56:08.382Z,13.20
2018-04-29T05:57:08.407Z,13.13
2018-04-29T05:58:08.437Z,13.30
2018-04-29T05:59:08.448Z,13.28
2018-04-29T06:00:08.462Z,13.33
2018-04-29T06:01:08.486Z,13.43
2018-04-29T06:02:08.516Z,13.55
2018-04-29T06:03:08.531Z,13.49
2018-04-29T06:04:08.553Z,13.68
2018-04-29T06:05:08.567Z,13.65
2018-04-29T06:06:08.648Z,13.68
2018-04-29T06:07:08.618Z,13.79
2018-04-29T06:08:08.633Z,13.79
2018-04-29T06:09:08.662Z,13.89
2018-04-29T06:10:08.683Z,13.87
2018-04-29T06:11:08.697Z,13.82
2018-04-29T06:12:08.723Z,13.98
2018-04-29T06:13:08.737Z,13.95
2018-04-29T06:14:08.772Z,14.01
2018-04-29T06:15:08.788Z,14.13
2018-04-29T06:16:08.803Z,14.19
2018-04-29T06:17:08.828Z,14.25
2018-04-29T06:18:08.853Z,14.34
2018-04-29T06:19:08.867Z,14.49
2018-04-29T06:20:08.893Z,14.53
2018-04-29T06:21:08.906Z,14.63
2018-04-29T06:22:08.933Z,14.81
2018-04-29T06:23:08.960Z,15.04
2018-04-29T06:24:08.973Z,15.26
2018-04-29T06:25:08.999Z,15.41
2018-04-29T06:26:09.036Z,15.60
2018-04-29T06:27:09.050Z,15.73
2018-04-29T06:28:09.063Z,15.91
2018-04-29T06:29:09.089Z,16.03
2018-04-29T06:30:09.115Z,16.05
2018-04-29T06:31:09.145Z,16.29
2018-04-29T06:32:09.156Z,16.37
2018-04-29T06:33:09.181Z,16.47
2018-04-29T06:34:09.206Z,16.72
2018-04-29T06:35:09.232Z,16.91
2018-04-29T06:36:09.246Z,17.01
2018-04-29T06:37:09.272Z,17.13
2018-04-29T06:38:09.297Z,17.35
2018-04-29T06:39:09.323Z,17.44
2018-04-29T06:40:09.350Z,17.59
2018-04-29T06:41:09.375Z,17.57
2018-04-29T06:42:09.391Z,17.84
2018-04-29T06:43:09.416Z,18.00
2018-04-29T06:44:09.442Z,18.15
2018-04-29T06:45:09.468Z,18.33
2018-04-29T06:46:09.493Z,18.66
2018-04-29T06:47:09.527Z,18.83
2018-04-29T06:48:09.545Z,19.09
2018-04-29T06:49:09.572Z,19.24
2018-04-29T06:50:09.597Z,19.37
2018-04-29T06:51:09.623Z,19.48
2018-04-29T06:52:09.655Z,19.42
2018-04-29T06:53:09.676Z,19.53
2018-04-29T06:54:09.701Z,19.59
2018-04-29T06:55:09.727Z,19.63
2018-04-29T06:56:09.753Z,19.66
2018-04-29T06:57:09.780Z,19.74
2018-04-29T06:58:09.805Z,19.79
2018-04-29T06:59:09.837Z,19.87
2018-04-29T07:00:09.856Z,19.97
2018-04-29T07:01:09.883Z,19.97
2018-04-29T07:02:09.911Z,19.96
2018-04-29T07:03:09.936Z,19.92
2018-04-29T07:04:09.962Z,20.02
2018-04-29T07:05:09.986Z,20.00
2018-04-29T07:06:10.013Z,19.93
2018-04-29T07:07:10.045Z,19.92
2018-04-29T07:08:10.125Z,19.89
2018-04-29T07:09:10.092Z,19.84
2018-04-29T07:10:10.117Z,19.85
2018-04-29T07:11:10.144Z,19.79
2018-04-29T07:12:10.170Z,19.94
2018-04-29T07:13:10.197Z,19.94
2018-04-29T07:14:10.245Z,19.97
2018-04-29T07:15:10.248Z,19.90
2018-04-29T07:16:10.273Z,19.99
2018-04-29T07:17:10.301Z,19.94
2018-04-29T07:18:10.325Z,20.00
2018-04-29T07:19:10.340Z,20.03
2018-04-29T07:20:10.364Z,19.99
2018-04-29T07:21:10.392Z,20.04
2018-04-29T07:22:10.419Z,20.11
2018-04-29T07:23:10.443Z,20.17
2018-04-29T07:24:10.467Z,20.21
2018-04-29T07:25:10.494Z,20.33
2018-04-29T07:26:10.520Z,20.48
2018-04-29T07:27:10.546Z,20.56
2018-04-29T07:28:10.573Z,20.60
2018-04-29T07:29:10.599Z,20.67
2018-04-29T07:30:10.625Z,20.83
2018-04-29T07:31:10.663Z,20.86
2018-04-29T07:32:10.689Z,21.01
2018-04-29T07:33:10.716Z,21.04
2018-04-29T07:34:10.757Z,21.22
2018-04-29T07:35:10.768Z,21.22
2018-04-29T07:36:10.793Z,21.30
2018-04-29T07:37:10.819Z,21.41
2018-04-29T07:38:10.845Z,21.51
2018-04-29T07:39:10.872Z,21.68
2018-04-29T07:40:10.984Z,21.74
2018-04-29T07:41:10.935Z,21.83
2018-04-29T07:42:10.961Z,21.96
2018-04-29T07:43:10.988Z,21.89
2018-04-29T07:44:11.014Z,22.00
2018-04-29T07:45:11.040Z,22.01
2018-04-29T07:46:11.079Z,22.04
2018-04-29T07:47:11.104Z,22.08
2018-04-29T07:48:11.131Z,22.18
2018-04-29T07:49:11.155Z,22.22
2018-04-29T07:50:11.193Z,22.37
2018-04-29T07:51:11.220Z,22.59
2018-04-29T07:52:11.347Z,22.76
2018-04-29T07:53:11.275Z,23.01
2018-04-29T07:54:11.311Z,23.14
2018-04-29T07:55:11.337Z,23.29
2018-04-29T07:56:11.362Z,23.36
2018-04-29T07:57:11.400Z,23.44
2018-04-29T07:58:11.440Z,23.49
2018-04-29T07:59:11.453Z,23.63
2018-04-29T08:00:11.493Z,23.69
2018-04-29T08:01:11.518Z,23.74
2018-04-29T08:02:11.555Z,23.76
2018-04-29T08:03:11.581Z,23.77
2018-04-29T08:04:11.608Z,23.74
2018-04-29T08:05:11.646Z,23.73
2018-04-29T08:06:11.673Z,23.67
2018-04-29T08:07:11.698Z,23.69
2018-04-29T08:08:11.737Z,23.69
2018-04-29T08:09:11.762Z,23.71
2018-04-29T08:10:11.789Z,23.76
2018-04-29T08:11:11.827Z,23.66
2018-04-29T08:12:11.854Z,23.66
2018-04-29T08:13:11.879Z,23.59
2018-04-29T08:14:11.918Z,23.56
2018-04-29T08:15:11.943Z,23.64
2018-04-29T08:16:11.969Z,23.66
2018-04-29T08:17:11.996Z,23.70
2018-04-29T08:18:12.033Z,23.70
2018-04-29T08:19:12.060Z,23.77
2018-04-29T08:20:12.086Z,23.76
2018-04-29T08:21:12.123Z,23.81
2018-04-29T08:22:12.151Z,23.84
2018-04-29T08:23:12.176Z,23.81
2018-04-29T08:24:12.203Z,23.74
2018-04-29T08:25:12.244Z,23.69
2018-04-29T08:26:12.270Z,23.59
2018-04-29T08:27:12.293Z,23.47
2018-04-29T08:28:12.321Z,23.37
2018-04-29T08:29:12.358Z,23.36
2018-04-29T08:30:12.386Z,23.34
2018-04-29T08:31:12.409Z,23.28
2018-04-29T08:32:12.449Z,23.26
2018-04-29T08:33:12.465Z,23.23
2018-04-29T08:34:12.499Z,23.16
2018-04-29T08:35:12.525Z,23.20
2018-04-29T08:36:12.569Z,23.04
2018-04-29T08:37:12.577Z,22.99
2018-04-29T08:38:12.604Z,22.96
2018-04-29T08:39:12.645Z,22.93
2018-04-29T08:40:12.667Z,22.88
2018-04-29T08:41:12.694Z,22.80
2018-04-29T08:42:12.719Z,22.77
2018-04-29T08:43:12.791Z,22.84
2018-04-29T08:44:12.772Z,22.77
2018-04-29T08:45:12.815Z,22.73
2018-04-29T08:46:12.837Z,22.59
2018-04-29T08:47:12.862Z,22.53
2018-04-29T08:48:12.889Z,22.52
2018-04-29T08:49:12.915Z,22.46
2018-04-29T08:50:12.949Z,22.53
2018-04-29T08:51:12.967Z,22.38
2018-04-29T08:52:13.005Z,22.30
2018-04-29T08:53:13.031Z,22.31
2018-04-29T08:54:13.057Z,22.26
2018-04-29T08:55:13.083Z,22.25
2018-04-29T08:56:13.109Z,22.12
2018-04-29T08:57:13.135Z,22.07
2018-04-29T08:58:13.161Z,22.10
2018-04-29T08:59:13.186Z,22.10
2018-04-29T09:00:13.225Z,22.04
2018-04-29T09:01:13.252Z,22.07
2018-04-29T09:02:13.278Z,22.04
2018-04-29T09:03:13.305Z,22.08
2018-04-29T09:04:13.333Z,22.06
2018-04-29T09:05:13.356Z,22.01
2018-04-29T09:06:13.382Z,22.07
2018-04-29T09:07:13.410Z,22.00
2018-04-29T09:08:13.434Z,21.99
2018-04-29T09:09:13.459Z,21.91
2018-04-29T09:10:13.491Z,21.92
2018-04-29T09:11:13.513Z,22.01
2018-04-29T09:12:13.538Z,21.94
2018-04-29T09:13:13.563Z,21.89
2018-04-29T09:14:13.590Z,21.89
2018-04-29T09:15:13.614Z,21.88
2018-04-29T09:16:13.641Z,21.88
2018-04-29T09:17:13.668Z,21.84
2018-04-29T09:18:13.693Z,21.75
2018-04-29T09:19:13.719Z,21.81
2018-04-29T09:20:13.745Z,21.92
2018-04-29T09:21:13.770Z,21.85
2018-04-29T09:22:13.800Z,21.85
2018-04-29T09:23:13.823Z,21.75
2018-04-29T09:24:13.849Z,21.89
2018-04-29T09:25:13.874Z,21.72
2018-04-29T09:26:13.904Z,21.75
2018-04-29T09:27:13.929Z,21.84
2018-04-29T09:28:13.952Z,21.88
2018-04-29T09:29:13.978Z,21.84
2018-04-29T09:30:14.006Z,21.89
2018-04-29T09:31:14.031Z,21.88
2018-04-29T09:32:14.074Z,21.96
2018-04-29T09:33:14.083Z,21.91
2018-04-29T09:34:14.109Z,21.89
2018-04-29T09:35:14.135Z,21.88
2018-04-29T09:36:14.161Z,22.01
2018-04-29T09:37:14.207Z,21.97
2018-04-29T09:38:14.213Z,22.03
2018-04-29T09:39:14.241Z,21.94
2018-04-29T09:40:14.265Z,21.97
2018-04-29T09:41:14.290Z,22.01
2018-04-29T09:42:14.316Z,22.04
2018-04-29T09:43:14.354Z,21.89
2018-04-29T09:44:14.368Z,21.96
2018-04-29T09:45:14.394Z,21.99
2018-04-29T09:46:14.422Z,21.97
2018-04-29T09:47:14.447Z,22.01
2018-04-29T09:48:14.472Z,21.94
2018-04-29T09:49:14.504Z,22.00
2018-04-29T09:50:14.523Z,21.99
2018-04-29T09:51:14.549Z,22.07
2018-04-29T09:52:14.575Z,22.06
2018-04-29T09:53:14.601Z,22.03
2018-04-29T09:54:14.628Z,22.06
2018-04-29T09:55:14.657Z,22.06
2018-04-29T09:56:14.679Z,22.14
2018-04-29T09:57:14.705Z,22.22
2018-04-29T09:58:14.731Z,22.25
2018-04-29T09:59:14.758Z,22.30
2018-04-29T10:00:14.788Z,22.22
2018-04-29T10:01:14.881Z,22.36
2018-04-29T10:02:14.834Z,22.31
2018-04-29T10:03:14.866Z,22.43
2018-04-29T10:04:14.886Z,22.46
2018-04-29T10:05:14.913Z,22.70
2018-04-29T10:06:14.940Z,22.77
2018-04-29T10:07:14.978Z,22.88
2018-04-29T10:08:15.002Z,23.04
2018-04-29T10:09:15.028Z,23.34
2018-04-29T10:10:15.068Z,23.25
2018-04-29T10:11:15.098Z,23.45
2018-04-29T10:12:15.119Z,23.56
2018-04-29T10:13:15.145Z,23.77
2018-04-29T10:14:15.182Z,23.91
2018-04-29T10:15:15.210Z,23.96
2018-04-29T10:16:15.234Z,24.14
2018-04-29T10:17:15.274Z,24.26
2018-04-29T10:18:15.300Z,24.37
2018-04-29T10:19:15.339Z,24.59
2018-04-29T10:20:15.368Z,24.81
2018-04-29T10:21:15.390Z,24.92
2018-04-29T10:22:15.429Z,24.92
2018-04-29T10:23:15.466Z,25.09
2018-04-29T10:24:15.494Z,25.29
2018-04-29T10:25:15.533Z,25.54
2018-04-29T10:26:15.558Z,25.78
2018-04-29T10:27:15.596Z,25.92
2018-04-29T10:28:15.635Z,26.23
2018-04-29T10:29:15.672Z,26.51
2018-04-29T10:30:15.713Z,26.67
2018-04-29T10:31:15.743Z,26.97
2018-04-29T10:32:15.776Z,27.08
2018-04-29T10:33:15.815Z,27.23
2018-04-29T10:34:15.853Z,27.40
2018-04-29T10:35:15.893Z,27.67
2018-04-29T10:36:15.933Z,27.83
2018-04-29T10:37:15.969Z,28.09
2018-04-29T10:38:16.008Z,28.60
2018-04-29T10:39:16.047Z,28.57
2018-04-29T10:40:16.084Z,28.72
2018-04-29T10:41:16.122Z,29.05
2018-04-29T10:42:16.161Z,29.27
2018-04-29T10:43:16.200Z,29.58
2018-04-29T10:44:16.237Z,29.74
2018-04-29T10:45:16.276Z,29.94
2018-04-29T10:46:16.315Z,30.03
2018-04-29T10:47:16.353Z,30.33
2018-04-29T10:48:16.393Z,30.40
2018-04-29T10:49:16.517Z,30.52
2018-04-29T10:50:16.468Z,30.56
2018-04-29T10:51:16.520Z,30.69
2018-04-29T10:52:16.559Z,30.98
2018-04-29T10:53:16.596Z,31.17
2018-04-29T10:54:16.635Z,31.42
2018-04-29T10:55:16.675Z,31.42
2018-04-29T10:56:16.712Z,31.44
2018-04-29T10:57:16.750Z,31.70
2018-04-29T10:58:16.801Z,31.95
2018-04-29T10:59:16.843Z,32.19
2018-04-29T11:00:16.891Z,32.16
2018-04-29T11:01:16.917Z,32.34
2018-04-29T11:02:16.957Z,32.46
2018-04-29T11:03:17.005Z,32.64
2018-04-29T11:04:17.117Z,32.79
2018-04-29T11:05:17.098Z,33.03
2018-04-29T11:06:17.122Z,33.17
2018-04-29T11:07:17.172Z,33.50
2018-04-29T11:08:17.223Z,33.48
2018-04-29T11:09:17.249Z,33.69
2018-04-29T11:10:17.289Z,33.97
2018-04-29T11:11:17.340Z,33.97
2018-04-29T11:12:17.378Z,34.11
2018-04-29T11:13:17.415Z,34.28
2018-04-29T11:14:17.466Z,34.25
2018-04-29T11:15:17.512Z,34.53
2018-04-29T11:16:17.544Z,34.60
2018-04-29T11:17:17.595Z,34.63
2018-04-29T11:18:17.634Z,34.70
2018-04-29T11:19:17.673Z,34.70
2018-04-29T11:20:17.737Z,34.55
2018-04-29T11:21:17.761Z,34.82
2018-04-29T11:22:17.828Z,34.98
2018-04-29T11:23:17.851Z,34.94
2018-04-29T11:24:17.890Z,34.94
2018-04-29T11:25:17.927Z,35.03
2018-04-29T11:26:17.978Z,35.16
2018-04-29T11:27:18.019Z,35.34
2018-04-29T11:28:18.069Z,35.13
2018-04-29T11:29:18.111Z,35.16
2018-04-29T11:30:18.146Z,35.37
2018-04-29T11:31:18.183Z,35.50
2018-04-29T11:32:18.234Z,35.60
2018-04-29T11:33:18.273Z,35.74
2018-04-29T11:34:18.514Z,35.74
2018-04-29T11:35:18.362Z,35.72
2018-04-29T11:36:18.751Z,35.81
2018-04-29T11:37:18.443Z,35.91
2018-04-29T11:38:18.490Z,35.86
2018-04-29T11:39:18.528Z,35.69
2018-04-29T11:40:18.652Z,35.78
2018-04-29T11:41:18.622Z,35.78
2018-04-29T11:42:18.657Z,35.91
2018-04-29T11:43:18.708Z,35.87
2018-04-29T11:44:18.747Z,35.81
2018-04-29T11:45:18.790Z,35.88
2018-04-29T11:46:18.836Z,35.84
2018-04-29T11:47:18.873Z,35.96
2018-04-29T11:48:18.913Z,36.08
2018-04-29T11:49:19.315Z,36.00
2018-04-29T11:50:19.002Z,36.08
2018-04-29T11:51:19.054Z,35.98
2018-04-29T11:52:19.094Z,36.03
2018-04-29T11:53:19.129Z,36.13
2018-04-29T11:54:19.181Z,36.29
2018-04-29T11:55:19.220Z,36.29
2018-04-29T11:56:19.257Z,36.25
2018-04-29T11:58:19.351Z,36.29
2018-04-29T11:59:19.398Z,36.26
2018-04-29T12:00:19.448Z,36.29
2018-04-29T12:01:19.480Z,36.24
2018-04-29T12:02:19.527Z,36.38
2018-04-29T12:03:19.563Z,36.69
2018-04-29T12:04:19.602Z,36.66
2018-04-29T12:05:19.658Z,36.66
2018-04-29T12:06:19.693Z,36.20
2018-04-29T12:07:19.743Z,36.16
2018-04-29T12:08:19.785Z,36.13
2018-04-29T12:09:19.819Z,36.24
2018-04-29T12:10:19.872Z,36.24
2018-04-29T12:11:19.911Z,36.14
2018-04-29T12:12:19.948Z,36.20
2018-04-29T12:14:20.038Z,36.33
2018-04-29T12:15:20.089Z,36.36
2018-04-29T12:16:20.150Z,36.25
2018-04-29T12:17:20.168Z,36.18
2018-04-29T12:18:20.216Z,36.03
2018-04-29T12:19:20.256Z,35.97
2018-04-29T12:20:20.293Z,36.00
2018-04-29T12:21:20.344Z,36.06
2018-04-29T12:23:20.421Z,35.84
2018-04-29T12:24:20.461Z,35.87
2018-04-29T12:26:20.549Z,35.98
2018-04-29T12:27:20.589Z,36.01
2018-04-29T12:28:20.638Z,35.84
2018-04-29T12:29:20.676Z,36.01
2018-04-29T12:30:20.727Z,35.90
2018-04-29T12:31:20.765Z,35.94
2018-04-29T12:32:20.804Z,36.08
2018-04-29T12:33:20.843Z,36.20
2018-04-29T12:34:20.893Z,36.09
2018-04-29T12:35:20.933Z,36.14
2018-04-29T12:36:20.970Z,36.01
2018-04-29T12:37:21.021Z,36.09
2018-04-29T12:38:21.060Z,36.25
2018-04-29T12:39:21.159Z,36.25
2018-04-29T12:40:21.138Z,36.26
2018-04-29T12:41:21.189Z,36.28
2018-04-29T12:42:21.226Z,36.09
2018-04-29T12:43:21.267Z,36.00
2018-04-29T12:44:21.316Z,36.28
2018-04-29T12:45:21.354Z,36.38
2018-04-29T12:46:21.405Z,36.33
2018-04-29T12:47:21.444Z,36.51
2018-04-29T12:48:21.483Z,36.51
2018-04-29T12:49:21.521Z,36.59
2018-04-29T12:50:21.572Z,36.54
2018-04-29T12:51:21.611Z,36.72
2018-04-29T12:52:21.688Z,36.80
2018-04-29T12:53:21.700Z,36.70
2018-04-29T12:54:21.738Z,36.47
2018-04-29T12:55:21.778Z,36.50
2018-04-29T12:56:21.828Z,36.60